To NAV CANADA Home Page Login to a new session Search on AWWS site Disclaimer Vers la page française équivalente Tips FAQ What's new on the site To the Forecasts and Observations / NOTAM section To "File a Flight Plan" website Publications and other links Update of the User's profile FIC Telephone Numbers My Weather Data Folder Route Weather Data Regional Weather Data Local Weather Data To the Forecasts and Observations / NOTAM section
Request Generated 04/24/2019 at 15:59:54 UTC . Weather information available at that time is displayed.

METAR/TAF

TOFINO/LONG BEACH/BC    

SPECI CYAZ 241518Z VRB02KT 3SM BCFG SKC 06/05 A3035 RMK FG2 VIS LWR ALG SHR SLP280=
METAR CYAZ 241500Z 03004KT 360V060 1/4SM FG SKC 05/05 A3034 RMK FG6 SLP277=
METAR CYAZ 241400Z 00000KT 3SM BCFG SKC 04/04 A3032 RMK FG4 VIS 1/4 ALG SHR FG BNK ALG SHR SLP271=
SPECI CYAZ 241352Z 03003KT 3SM BCFG SKC 04/04 A3032 RMK FG3 VIS 1/4 ALG SHR FG BANK ALG SHR SLP271=
SPECI CYAZ 241349Z 03004KT 1/4SM FG VV004 04/04 A3032 RMK FG8 SLP270=
METAR CYAZ 241300Z 00000KT 1/4SM FG VV002 04/03 A3031 RMK FG8 SLP267=

TAF CYAZ 241439Z 2415/2501 VRB03KT 1SM BR SCT002
BECMG 2415/2417 P6SM NSW SKC
FM241700 26005KT P6SM SKC
RMK NXT FCST BY 241800Z=
Your time UTC time
Weather data provided by Environment Canada and NAV CANADA